createdAt,value
2023-03-26T00:00:51.685Z,63.09
2023-03-26T00:01:51.715Z,61.75
2023-03-26T00:02:51.682Z,61.44
2023-03-26T00:03:51.658Z,61.44
2023-03-26T00:04:51.643Z,61.96
2023-03-26T00:05:51.757Z,62.06
2023-03-26T00:06:51.596Z,61.24
2023-03-26T00:07:51.599Z,60.17
2023-03-26T00:08:51.579Z,60.07
2023-03-26T00:09:51.587Z,59.66
2023-03-26T00:10:51.549Z,60.05
2023-03-26T00:11:51.547Z,59.22
2023-03-26T00:12:51.520Z,59.33
2023-03-26T00:13:51.512Z,59.42
2023-03-26T00:14:51.526Z,58.81
2023-03-26T00:15:51.617Z,58.37
2023-03-26T00:16:51.516Z,58.58
2023-03-26T00:17:51.889Z,59.09
2023-03-26T00:18:51.437Z,59.30
2023-03-26T00:19:51.451Z,59.81
2023-03-26T00:20:51.407Z,60.43
2023-03-26T00:21:51.423Z,60.63
2023-03-26T00:22:51.404Z,60.63
2023-03-26T00:23:51.376Z,60.56
2023-03-26T00:24:51.377Z,60.46
2023-03-26T00:25:51.532Z,61.07
2023-03-26T00:26:51.324Z,60.46
2023-03-26T00:27:51.326Z,60.25
2023-03-26T00:28:51.303Z,59.30
2023-03-26T00:29:51.316Z,58.06
2023-03-26T00:30:51.356Z,57.86
2023-03-26T00:31:51.273Z,57.65
2023-03-26T00:32:53.389Z,58.45
2023-03-26T00:33:51.255Z,58.14
2023-03-26T00:34:51.285Z,57.82
2023-03-26T00:35:51.267Z,58.24
2023-03-26T00:36:51.194Z,57.80
2023-03-26T00:37:51.189Z,57.70
2023-03-26T00:38:51.181Z,58.31
2023-03-26T00:39:51.204Z,58.73
2023-03-26T00:40:51.158Z,58.11
2023-03-26T00:41:51.128Z,58.21
2023-03-26T00:42:51.120Z,58.01
2023-03-26T00:43:51.107Z,56.98
2023-03-26T00:44:51.088Z,56.67
2023-03-26T00:45:51.211Z,56.77
2023-03-26T00:46:51.068Z,56.95
2023-03-26T00:47:51.073Z,56.95
2023-03-26T00:48:51.057Z,57.26
2023-03-26T00:49:51.038Z,57.78
2023-03-26T00:50:51.050Z,57.78
2023-03-26T00:51:51.005Z,58.29
2023-03-26T00:52:50.985Z,58.31
2023-03-26T00:53:50.981Z,58.93
2023-03-26T00:54:50.993Z,58.83
2023-03-26T00:55:51.095Z,58.01
2023-03-26T00:56:50.992Z,58.52
2023-03-26T00:57:50.916Z,57.29
2023-03-26T00:58:50.941Z,56.54
2023-03-26T00:59:50.894Z,57.06
2023-03-26T01:00:50.915Z,58.18
2023-03-26T01:01:50.905Z,58.18
2023-03-26T01:02:50.911Z,57.98
2023-03-26T01:04:05.319Z,57.98
2023-03-26T01:04:50.939Z,58.39
2023-03-26T01:05:50.809Z,59.11
2023-03-26T01:06:50.806Z,59.83
2023-03-26T01:07:50.789Z,59.65
2023-03-26T01:08:50.775Z,60.68
2023-03-26T01:09:50.761Z,61.51
2023-03-26T01:10:50.791Z,62.02
2023-03-26T01:11:50.730Z,63.25
2023-03-26T01:12:50.715Z,64.59
2023-03-26T01:13:50.723Z,65.72
2023-03-26T01:14:51.999Z,65.11
2023-03-26T01:15:50.784Z,66.03
2023-03-26T01:16:50.671Z,66.37
2023-03-26T01:17:50.706Z,66.58
2023-03-26T01:18:50.637Z,67.09
2023-03-26T01:19:50.650Z,67.30
2023-03-26T01:20:50.686Z,66.88
2023-03-26T01:21:50.753Z,67.81
2023-03-26T01:22:50.602Z,68.53
2023-03-26T01:23:50.581Z,69.18
2023-03-26T01:24:50.562Z,70.21
2023-03-26T01:25:50.574Z,70.72
2023-03-26T01:26:50.534Z,71.44
2023-03-26T01:27:50.512Z,72.06
2023-03-26T01:28:50.510Z,71.86
2023-03-26T01:29:50.496Z,71.96
2023-03-26T01:30:50.505Z,72.06
2023-03-26T01:31:50.478Z,71.86
2023-03-26T01:32:50.533Z,71.75
2023-03-26T01:33:50.482Z,71.65
2023-03-26T01:34:50.425Z,71.55
2023-03-26T01:35:50.491Z,70.83
2023-03-26T01:36:50.395Z,70.31
2023-03-26T01:37:50.503Z,71.14
2023-03-26T01:38:50.398Z,70.31
2023-03-26T01:39:50.358Z,70.31
2023-03-26T01:40:50.340Z,70.72
2023-03-26T01:41:50.338Z,70.93
2023-03-26T01:42:50.323Z,71.65
2023-03-26T01:43:50.327Z,71.92
2023-03-26T01:44:50.309Z,71.92
2023-03-26T01:45:50.378Z,71.62
2023-03-26T01:46:50.314Z,71.31
2023-03-26T01:47:50.259Z,71.10
2023-03-26T01:48:50.233Z,70.90
2023-03-26T01:49:50.230Z,69.66
2023-03-26T01:50:50.214Z,68.84
2023-03-26T01:51:50.226Z,69.35
2023-03-26T01:52:50.189Z,69.76
2023-03-26T01:53:50.191Z,69.35
2023-03-26T01:54:50.179Z,69.66
2023-03-26T01:55:50.151Z,69.87
2023-03-26T01:56:50.187Z,70.28
2023-03-26T01:57:50.112Z,71.00
2023-03-26T01:58:50.135Z,71.20
2023-03-26T01:59:50.093Z,72.24
2023-03-26T02:00:50.081Z,72.24
2023-03-26T02:01:50.135Z,72.44
2023-03-26T02:02:50.108Z,71.82
2023-03-26T02:03:50.059Z,72.64
2023-03-26T02:04:50.039Z,73.16
2023-03-26T02:05:50.020Z,73.06
2023-03-26T02:06:49.999Z,73.68
2023-03-26T02:07:49.999Z,73.47
2023-03-26T02:08:49.959Z,73.26
2023-03-26T02:09:49.967Z,72.96
2023-03-26T02:10:49.930Z,73.26
2023-03-26T02:11:49.935Z,73.06
2023-03-26T02:12:49.951Z,72.85
2023-03-26T02:13:49.907Z,72.54
2023-03-26T02:14:49.911Z,72.44
2023-03-26T02:15:49.955Z,71.10
2023-03-26T02:16:49.859Z,72.13
2023-03-26T02:17:49.874Z,72.85
2023-03-26T02:18:49.862Z,73.06
2023-03-26T02:19:49.814Z,73.47
2023-03-26T02:20:49.811Z,73.57
2023-03-26T02:21:49.798Z,72.75
2023-03-26T02:22:49.774Z,71.82
2023-03-26T02:23:49.796Z,72.34
2023-03-26T02:24:49.749Z,73.06
2023-03-26T02:25:49.752Z,71.31
2023-03-26T02:26:49.731Z,70.18
2023-03-26T02:27:49.801Z,69.66
2023-03-26T02:28:49.734Z,68.91
2023-03-26T02:29:49.681Z,69.42
2023-03-26T02:30:49.680Z,69.63
2023-03-26T02:31:49.724Z,69.32
2023-03-26T02:32:49.651Z,68.80
2023-03-26T02:33:49.621Z,69.53
2023-03-26T02:34:49.648Z,70.45
2023-03-26T02:35:49.756Z,70.76
2023-03-26T02:36:49.617Z,70.86
2023-03-26T02:37:49.568Z,70.45
2023-03-26T02:38:49.566Z,69.94
2023-03-26T02:39:49.573Z,70.76
2023-03-26T02:40:49.528Z,71.69
2023-03-26T02:41:49.547Z,73.33
2023-03-26T02:42:49.506Z,73.54
2023-03-26T02:43:49.500Z,72.92
2023-03-26T02:44:49.512Z,73.88
2023-03-26T02:45:49.536Z,74.19
2023-03-26T02:46:49.448Z,74.80
2023-03-26T02:47:49.440Z,69.25
2023-03-26T02:48:49.425Z,73.98
2023-03-26T02:49:49.447Z,71.41
2023-03-26T02:50:49.436Z,71.82
2023-03-26T02:51:49.395Z,70.79
2023-03-26T02:52:49.384Z,69.66
2023-03-26T02:53:49.362Z,69.76
2023-03-26T02:54:49.379Z,69.66
2023-03-26T02:55:49.346Z,69.53
2023-03-26T02:56:49.369Z,70.35
2023-03-26T02:57:49.312Z,70.45
2023-03-26T02:58:49.286Z,70.56
2023-03-26T02:59:49.280Z,70.56
2023-03-26T03:00:49.327Z,72.13
2023-03-26T03:01:49.280Z,72.72
2023-03-26T03:02:49.307Z,73.06
2023-03-26T03:03:49.229Z,73.36
2023-03-26T03:04:49.230Z,75.84
2023-03-26T03:05:49.228Z,76.35
2023-03-26T03:06:49.184Z,76.28
2023-03-26T03:07:49.189Z,76.49
2023-03-26T03:08:49.178Z,76.79
2023-03-26T03:09:49.150Z,76.28
2023-03-26T03:10:49.188Z,76.28
2023-03-26T03:11:49.135Z,75.97
2023-03-26T03:12:49.111Z,76.07
2023-03-26T03:13:49.112Z,74.05
2023-03-26T03:14:49.089Z,74.22
2023-03-26T03:15:49.089Z,74.63
2023-03-26T03:16:49.161Z,74.98
2023-03-26T03:17:49.138Z,75.70
2023-03-26T03:18:49.033Z,75.49
2023-03-26T03:19:49.012Z,75.90
2023-03-26T03:20:49.036Z,75.49
2023-03-26T03:21:49.005Z,75.70
2023-03-26T03:22:48.986Z,75.70
2023-03-26T03:23:48.956Z,75.08
2023-03-26T03:24:48.938Z,75.18
2023-03-26T03:25:48.959Z,74.05
2023-03-26T03:26:48.935Z,72.51
2023-03-26T03:27:48.936Z,73.95
2023-03-26T03:28:48.897Z,74.36
2023-03-26T03:29:48.880Z,74.05
2023-03-26T03:30:48.969Z,74.05
2023-03-26T03:31:48.890Z,73.54
2023-03-26T03:32:48.864Z,74.05
2023-03-26T03:33:48.856Z,73.74
2023-03-26T03:34:48.824Z,73.13
2023-03-26T03:35:48.861Z,73.95
2023-03-26T03:36:48.799Z,74.57
2023-03-26T03:37:48.784Z,74.77
2023-03-26T03:38:48.802Z,74.98
2023-03-26T03:39:48.748Z,74.77
2023-03-26T03:40:48.739Z,75.08
2023-03-26T03:41:48.723Z,75.70
2023-03-26T03:42:48.712Z,75.70
2023-03-26T03:43:48.688Z,75.60
2023-03-26T03:44:48.744Z,76.11
2023-03-26T03:45:48.728Z,76.66
2023-03-26T03:46:48.703Z,77.08
2023-03-26T03:47:48.700Z,77.28
2023-03-26T03:48:48.642Z,78.11
2023-03-26T03:49:48.614Z,78.21
2023-03-26T03:50:48.605Z,78.11
2023-03-26T03:51:48.593Z,75.12
2023-03-26T03:52:48.596Z,72.85
2023-03-26T03:53:48.560Z,72.41
2023-03-26T03:54:48.570Z,72.61
2023-03-26T03:55:48.536Z,72.09
2023-03-26T03:56:48.516Z,72.61
2023-03-26T03:57:48.547Z,71.48
2023-03-26T03:58:48.496Z,72.06
2023-03-26T03:59:48.544Z,72.27
2023-03-26T04:00:48.458Z,72.99
2023-03-26T04:01:48.489Z,73.30
2023-03-26T04:02:48.576Z,74.12
2023-03-26T04:03:48.532Z,75.08
2023-03-26T04:04:48.519Z,75.29
2023-03-26T04:05:48.414Z,75.90
2023-03-26T04:06:48.422Z,76.32
2023-03-26T04:07:48.374Z,76.73
2023-03-26T04:08:48.363Z,77.25
2023-03-26T04:09:48.350Z,77.80
2023-03-26T04:10:48.353Z,78.11
2023-03-26T04:11:48.351Z,78.72
2023-03-26T04:12:48.292Z,79.14
2023-03-26T04:13:48.316Z,79.34
2023-03-26T04:14:48.286Z,79.69
2023-03-26T04:15:48.363Z,79.90
2023-03-26T04:16:48.281Z,79.17
2023-03-26T04:17:48.348Z,79.27
2023-03-26T04:18:48.232Z,79.27
2023-03-26T04:19:48.217Z,79.58
2023-03-26T04:20:48.203Z,78.97
2023-03-26T04:21:48.221Z,78.14
2023-03-26T04:22:48.191Z,78.66
2023-03-26T04:23:48.165Z,79.27
2023-03-26T04:24:48.159Z,78.45
2023-03-26T04:25:48.140Z,79.17
2023-03-26T04:26:48.172Z,79.48
2023-03-26T04:27:48.114Z,79.27
2023-03-26T04:28:48.119Z,79.90
2023-03-26T04:29:48.074Z,80.20
2023-03-26T04:30:48.070Z,80.93
2023-03-26T04:31:48.098Z,81.23
2023-03-26T04:32:48.061Z,81.23
2023-03-26T04:33:48.034Z,81.75
2023-03-26T04:34:48.008Z,81.13
2023-03-26T04:35:48.212Z,81.34
2023-03-26T04:36:47.998Z,80.00
2023-03-26T04:37:47.975Z,79.17
2023-03-26T04:38:47.959Z,79.48
2023-03-26T04:39:47.949Z,79.69
2023-03-26T04:40:47.937Z,79.79
2023-03-26T04:41:47.944Z,79.69
2023-03-26T04:42:47.900Z,79.69
2023-03-26T04:43:47.896Z,80.20
2023-03-26T04:44:47.894Z,80.51
2023-03-26T04:45:47.882Z,82.06
2023-03-26T04:46:47.857Z,83.40
2023-03-26T04:47:47.899Z,83.61
2023-03-26T04:48:47.835Z,84.67
2023-03-26T04:49:47.805Z,84.99
2023-03-26T04:50:47.791Z,85.30
2023-03-26T04:51:47.818Z,86.02
2023-03-26T04:52:47.770Z,85.39
2023-03-26T04:53:47.758Z,85.50
2023-03-26T04:54:47.737Z,86.32
2023-03-26T04:55:47.726Z,86.68
2023-03-26T04:56:47.745Z,86.88
2023-03-26T04:57:47.734Z,87.19
2023-03-26T04:58:47.680Z,87.71
2023-03-26T04:59:47.690Z,86.16
2023-03-26T05:00:47.685Z,85.54
2023-03-26T05:01:47.653Z,86.57
2023-03-26T05:02:47.713Z,86.92
2023-03-26T05:03:47.624Z,87.23
2023-03-26T05:04:47.621Z,86.71
2023-03-26T05:05:47.586Z,86.92
2023-03-26T05:06:47.573Z,87.34
2023-03-26T05:07:47.589Z,87.13
2023-03-26T05:08:47.584Z,86.82
2023-03-26T05:09:47.541Z,86.78
2023-03-26T05:10:47.524Z,86.61
2023-03-26T05:11:47.520Z,86.10
2023-03-26T05:12:47.600Z,85.64
2023-03-26T05:13:47.509Z,85.75
2023-03-26T05:14:47.485Z,86.16
2023-03-26T05:15:47.456Z,87.08
2023-03-26T05:16:47.483Z,87.40
2023-03-26T05:17:47.439Z,87.40
2023-03-26T05:18:47.440Z,87.50
2023-03-26T05:19:47.413Z,87.50
2023-03-26T05:20:47.403Z,87.92
2023-03-26T05:21:47.364Z,87.92
2023-03-26T05:22:47.359Z,88.06
2023-03-26T05:23:47.350Z,88.26
2023-03-26T05:24:47.348Z,88.26
2023-03-26T05:25:47.433Z,88.57
2023-03-26T05:26:47.321Z,87.34
2023-03-26T05:27:47.305Z,87.44
2023-03-26T05:28:47.293Z,87.54
2023-03-26T05:29:47.324Z,86.82
2023-03-26T05:30:47.265Z,86.71
2023-03-26T05:31:47.332Z,86.51
2023-03-26T05:32:47.269Z,86.51
2023-03-26T05:33:47.273Z,86.30
2023-03-26T05:34:47.239Z,86.61
2023-03-26T05:35:47.262Z,86.92
2023-03-26T05:36:47.191Z,86.61
2023-03-26T05:37:47.170Z,85.99
2023-03-26T05:38:47.271Z,86.51
2023-03-26T05:39:47.285Z,88.26
2023-03-26T05:40:47.121Z,89.19
2023-03-26T05:41:47.134Z,89.36
2023-03-26T05:42:47.099Z,89.56
2023-03-26T05:43:47.083Z,89.67
2023-03-26T05:44:47.088Z,89.56
2023-03-26T05:45:47.087Z,89.36
2023-03-26T05:46:47.056Z,88.43
2023-03-26T05:47:47.057Z,88.22
2023-03-26T05:48:47.021Z,87.60
2023-03-26T05:49:47.057Z,86.88
2023-03-26T05:50:46.983Z,86.16
2023-03-26T05:51:46.972Z,86.16
2023-03-26T05:52:46.966Z,86.16
2023-03-26T05:53:46.946Z,86.36
2023-03-26T05:54:46.959Z,86.16
2023-03-26T05:55:46.936Z,86.16
2023-03-26T05:56:46.939Z,86.47
2023-03-26T05:57:46.898Z,86.61
2023-03-26T05:58:46.891Z,87.02
2023-03-26T05:59:46.895Z,86.82
2023-03-26T06:00:46.879Z,87.34
2023-03-26T06:01:46.829Z,87.44
2023-03-26T06:02:47.097Z,88.47
2023-03-26T06:03:46.966Z,88.57
2023-03-26T06:04:46.858Z,88.57
2023-03-26T06:05:46.826Z,88.98
2023-03-26T06:06:46.781Z,88.74
2023-03-26T06:07:46.762Z,88.64
2023-03-26T06:08:46.762Z,88.32
2023-03-26T06:09:46.738Z,88.43
2023-03-26T06:10:46.741Z,88.12
2023-03-26T06:11:46.703Z,88.02
2023-03-26T06:12:46.706Z,87.81
2023-03-26T06:13:46.673Z,87.19
2023-03-26T06:14:46.671Z,86.68
2023-03-26T06:15:46.761Z,86.68
2023-03-26T06:16:46.635Z,86.88
2023-03-26T06:17:46.690Z,86.88
2023-03-26T06:18:46.655Z,86.78
2023-03-26T06:19:46.608Z,86.68
2023-03-26T06:20:46.578Z,85.75
2023-03-26T06:21:46.597Z,86.16
2023-03-26T06:22:46.591Z,86.78
2023-03-26T06:23:46.548Z,86.84
2023-03-26T06:24:46.525Z,86.74
2023-03-26T06:25:46.516Z,87.15
2023-03-26T06:26:46.519Z,87.66
2023-03-26T06:27:46.480Z,87.66
2023-03-26T06:28:46.506Z,87.66
2023-03-26T06:29:46.470Z,87.87
2023-03-26T06:30:46.461Z,87.66
2023-03-26T06:31:46.460Z,87.87
2023-03-26T06:32:46.443Z,87.87
2023-03-26T06:33:46.428Z,87.05
2023-03-26T06:34:46.412Z,86.84
2023-03-26T06:35:46.458Z,86.84
2023-03-26T06:36:46.374Z,86.12
2023-03-26T06:37:46.376Z,85.30
2023-03-26T06:38:46.346Z,85.19
2023-03-26T06:39:46.354Z,85.60
2023-03-26T06:40:46.326Z,84.78
2023-03-26T06:41:46.299Z,84.47
2023-03-26T06:43:08.625Z,84.36
2023-03-26T06:43:46.297Z,84.84
2023-03-26T06:44:46.284Z,85.87
2023-03-26T06:45:46.268Z,86.90
2023-03-26T06:46:46.285Z,87.21
2023-03-26T06:47:46.265Z,86.90
2023-03-26T06:48:46.225Z,85.46
2023-03-26T06:49:46.191Z,85.36
2023-03-26T06:50:46.215Z,84.12
2023-03-26T06:51:46.160Z,84.01
2023-03-26T06:52:46.156Z,84.53
2023-03-26T06:53:46.152Z,84.74
2023-03-26T06:54:46.144Z,85.25
2023-03-26T06:55:46.143Z,85.57
2023-03-26T06:56:46.149Z,85.67
2023-03-26T06:57:46.089Z,86.39
2023-03-26T06:58:46.083Z,86.49
2023-03-26T06:59:46.076Z,86.87
2023-03-26T07:00:46.140Z,86.55
2023-03-26T07:01:46.852Z,86.76
2023-03-26T07:02:46.081Z,87.07
2023-03-26T07:03:46.077Z,86.97
2023-03-26T07:04:46.002Z,86.76
2023-03-26T07:05:46.011Z,86.66
2023-03-26T07:06:46.023Z,86.87
2023-03-26T07:07:46.793Z,86.61
2023-03-26T07:08:45.960Z,86.61
2023-03-26T07:09:45.934Z,86.52
2023-03-26T07:10:45.926Z,85.89
2023-03-26T07:11:45.944Z,85.69
2023-03-26T07:12:45.895Z,85.28
2023-03-26T07:13:45.894Z,85.24
2023-03-26T07:14:45.867Z,84.11
2023-03-26T07:15:45.851Z,83.07
2023-03-26T07:16:45.884Z,82.87
2023-03-26T07:17:45.919Z,81.49
2023-03-26T07:18:45.810Z,81.09
2023-03-26T07:19:45.799Z,80.36
2023-03-26T07:20:45.783Z,79.85
2023-03-26T07:21:45.796Z,80.57
2023-03-26T07:22:45.777Z,80.98
2023-03-26T07:23:45.741Z,81.09
2023-03-26T07:24:45.734Z,80.47
2023-03-26T07:25:45.753Z,80.47
2023-03-26T07:26:45.715Z,81.09
2023-03-26T07:27:45.681Z,81.81
2023-03-26T07:29:05.181Z,81.70
2023-03-26T07:29:45.659Z,81.91
2023-03-26T07:30:45.685Z,80.98
2023-03-26T07:31:45.665Z,80.67
2023-03-26T07:32:45.640Z,80.67
2023-03-26T07:33:45.614Z,80.77
2023-03-26T07:34:45.627Z,79.44
2023-03-26T07:35:45.599Z,79.64
2023-03-26T07:36:45.569Z,80.05
2023-03-26T07:37:45.577Z,79.54
2023-03-26T07:38:45.601Z,79.19
2023-03-26T07:39:45.564Z,79.61
2023-03-26T07:40:45.533Z,79.50
2023-03-26T07:41:45.501Z,78.68
2023-03-26T07:42:45.525Z,78.78
2023-03-26T07:43:45.475Z,79.30
2023-03-26T07:44:45.456Z,79.91
2023-03-26T07:45:45.539Z,80.33
2023-03-26T07:46:45.427Z,80.74
2023-03-26T07:47:45.439Z,81.73
2023-03-26T07:48:45.406Z,81.21
2023-03-26T07:49:45.395Z,81.11
2023-03-26T07:50:45.398Z,80.49
2023-03-26T07:51:45.399Z,81.01
2023-03-26T07:52:45.371Z,80.80
2023-03-26T07:53:45.358Z,80.39
2023-03-26T07:54:45.333Z,79.26
2023-03-26T07:55:45.302Z,79.16
2023-03-26T07:56:45.404Z,80.19
2023-03-26T07:57:45.286Z,80.05
2023-03-26T07:58:45.265Z,79.63
2023-03-26T07:59:45.352Z,78.81
2023-03-26T08:00:45.404Z,79.53
2023-03-26T08:01:45.262Z,80.05
2023-03-26T08:02:45.318Z,79.43
2023-03-26T08:03:45.278Z,78.50
2023-03-26T08:04:45.288Z,77.99
2023-03-26T08:05:45.178Z,78.67
2023-03-26T08:06:45.184Z,78.57
2023-03-26T08:07:45.159Z,80.21
2023-03-26T08:08:45.127Z,80.63
2023-03-26T08:09:45.122Z,82.17
2023-03-26T08:10:45.102Z,82.47
2023-03-26T08:11:45.123Z,82.47
2023-03-26T08:12:45.085Z,82.37
2023-03-26T08:13:45.077Z,81.55
2023-03-26T08:14:45.066Z,81.96
2023-03-26T08:15:45.065Z,81.65
2023-03-26T08:16:45.054Z,81.92
2023-03-26T08:18:16.290Z,82.43
2023-03-26T08:18:45.027Z,82.13
2023-03-26T08:19:44.980Z,82.33
2023-03-26T08:20:44.965Z,81.30
2023-03-26T08:21:45.011Z,81.41
2023-03-26T08:22:44.954Z,80.49
2023-03-26T08:23:50.283Z,81.51
2023-03-26T08:24:44.906Z,81.71
2023-03-26T08:25:44.889Z,81.20
2023-03-26T08:26:44.909Z,81.37
2023-03-26T08:27:44.880Z,80.55
2023-03-26T08:28:44.888Z,80.76
2023-03-26T08:29:44.842Z,81.37
2023-03-26T08:30:44.843Z,80.96
2023-03-26T08:31:44.817Z,79.73
2023-03-26T08:32:44.820Z,79.83
2023-03-26T08:33:44.830Z,79.90
2023-03-26T08:34:44.776Z,79.80
2023-03-26T08:35:44.794Z,78.05
2023-03-26T08:36:44.754Z,77.64
2023-03-26T08:37:44.741Z,77.74
2023-03-26T08:38:46.822Z,78.36
2023-03-26T08:39:44.708Z,77.64
2023-03-26T08:40:44.695Z,78.25
2023-03-26T08:41:44.683Z,76.62
2023-03-26T08:42:44.677Z,76.00
2023-03-26T08:43:44.645Z,77.54
2023-03-26T08:44:44.660Z,77.54
2023-03-26T08:45:44.618Z,76.51
2023-03-26T08:46:44.654Z,77.13
2023-03-26T08:47:44.637Z,77.64
2023-03-26T08:48:44.618Z,77.33
2023-03-26T08:49:44.605Z,76.82
2023-03-26T08:50:44.576Z,76.68
2023-03-26T08:51:44.556Z,77.40
2023-03-26T08:52:44.580Z,78.74
2023-03-26T08:53:44.535Z,78.19
2023-03-26T08:54:44.534Z,77.67
2023-03-26T08:55:44.506Z,78.90
2023-03-26T08:56:44.509Z,78.45
2023-03-26T08:57:44.467Z,77.73
2023-03-26T08:58:44.489Z,76.72
2023-03-26T08:59:44.438Z,76.88
2023-03-26T09:00:44.440Z,75.14
2023-03-26T09:01:44.503Z,74.53
2023-03-26T09:02:44.397Z,74.84
2023-03-26T09:03:44.413Z,75.65
2023-03-26T09:04:44.405Z,74.49
2023-03-26T09:05:44.352Z,75.01
2023-03-26T09:06:44.339Z,73.88
2023-03-26T09:07:44.323Z,72.41
2023-03-26T09:08:53.717Z,71.39
2023-03-26T09:09:44.346Z,72.00
2023-03-26T09:10:44.272Z,72.31
2023-03-26T09:11:44.288Z,72.28
2023-03-26T09:12:44.264Z,69.93
2023-03-26T09:13:44.238Z,69.21
2023-03-26T09:14:44.249Z,69.21
2023-03-26T09:15:44.232Z,69.21
2023-03-26T09:16:44.298Z,67.98
2023-03-26T09:17:44.234Z,68.32
2023-03-26T09:18:44.169Z,69.34
2023-03-26T09:19:44.190Z,69.04
2023-03-26T09:20:44.192Z,68.84
2023-03-26T09:21:44.152Z,69.24
2023-03-26T09:22:44.136Z,70.06
2023-03-26T09:23:44.125Z,69.96
2023-03-26T09:24:44.115Z,70.06
2023-03-26T09:25:44.120Z,68.49
2023-03-26T09:26:44.095Z,69.31
2023-03-26T09:27:44.072Z,69.62
2023-03-26T09:28:44.097Z,69.42
2023-03-26T09:29:44.037Z,69.21
2023-03-26T09:30:44.039Z,68.80
2023-03-26T09:31:44.042Z,70.13
2023-03-26T09:32:44.069Z,68.49
2023-03-26T09:33:43.979Z,68.49
2023-03-26T09:34:43.961Z,68.19
2023-03-26T09:35:43.984Z,68.19
2023-03-26T09:36:43.961Z,68.05
2023-03-26T09:37:57.461Z,67.13
2023-03-26T09:38:43.941Z,66.42
2023-03-26T09:39:43.927Z,66.62
2023-03-26T09:40:43.914Z,67.98
2023-03-26T09:41:43.905Z,66.96
2023-03-26T09:42:43.882Z,67.27
2023-03-26T09:43:43.831Z,66.55
2023-03-26T09:44:43.827Z,67.98
2023-03-26T09:45:43.883Z,68.19
2023-03-26T09:46:46.147Z,68.29
2023-03-26T09:47:43.860Z,66.55
2023-03-26T09:48:43.771Z,66.96
2023-03-26T09:49:43.779Z,67.27
2023-03-26T09:50:43.766Z,67.98
2023-03-26T09:51:43.759Z,67.98
2023-03-26T09:52:43.730Z,69.01
2023-03-26T09:53:43.707Z,67.16
2023-03-26T09:54:43.698Z,68.49
2023-03-26T09:55:43.678Z,68.49
2023-03-26T09:56:43.707Z,68.08
2023-03-26T09:57:43.757Z,68.19
2023-03-26T09:58:43.635Z,68.08
2023-03-26T09:59:43.627Z,68.19
2023-03-26T10:00:43.681Z,68.49
2023-03-26T10:01:43.655Z,68.60
2023-03-26T10:02:46.763Z,69.31
2023-03-26T10:03:43.579Z,69.01
2023-03-26T10:04:43.583Z,68.08
2023-03-26T10:05:43.549Z,68.49
2023-03-26T10:06:43.562Z,67.88
2023-03-26T10:07:43.526Z,68.29
2023-03-26T10:08:43.497Z,68.90
2023-03-26T10:09:43.490Z,67.78
2023-03-26T10:10:43.892Z,67.57
2023-03-26T10:11:43.495Z,67.95
2023-03-26T10:12:43.466Z,66.83
2023-03-26T10:13:43.453Z,66.55
2023-03-26T10:14:43.424Z,65.73
2023-03-26T10:15:43.415Z,65.33
2023-03-26T10:16:43.486Z,65.53
2023-03-26T10:17:43.475Z,65.22
2023-03-26T10:18:43.375Z,66.35
2023-03-26T10:19:43.372Z,65.84
2023-03-26T10:20:43.372Z,66.55
2023-03-26T10:21:43.329Z,66.14
2023-03-26T10:22:43.364Z,66.45
2023-03-26T10:23:43.304Z,67.07
2023-03-26T10:24:43.280Z,68.19
2023-03-26T10:25:43.306Z,69.62
2023-03-26T10:27:08.482Z,69.11
2023-03-26T10:27:43.294Z,69.01
2023-03-26T10:28:43.241Z,69.42
2023-03-26T10:29:43.229Z,69.42
2023-03-26T10:30:43.219Z,70.75
2023-03-26T10:31:43.220Z,70.78
2023-03-26T10:32:43.216Z,68.84
2023-03-26T10:33:43.168Z,68.93
2023-03-26T10:34:43.135Z,70.98
2023-03-26T10:35:43.168Z,72.41
2023-03-26T10:36:43.168Z,71.80
2023-03-26T10:37:43.112Z,71.08
2023-03-26T10:38:43.084Z,71.29
2023-03-26T10:39:43.628Z,72.82
2023-03-26T10:40:43.063Z,72.96
2023-03-26T10:41:43.076Z,74.69
2023-03-26T10:42:43.050Z,74.60
2023-03-26T10:43:43.024Z,75.10
2023-03-26T10:44:43.029Z,74.90
2023-03-26T10:45:42.987Z,74.69
2023-03-26T10:46:42.997Z,75.10
2023-03-26T10:47:43.001Z,75.21
2023-03-26T10:48:42.954Z,76.23
2023-03-26T10:49:42.965Z,76.54
2023-03-26T10:50:42.944Z,75.72
2023-03-26T10:51:42.910Z,76.13
2023-03-26T10:52:42.943Z,76.84
2023-03-26T10:53:42.886Z,76.43
2023-03-26T10:54:42.915Z,76.84
2023-03-26T10:55:42.870Z,77.26
2023-03-26T10:56:42.858Z,75.93
2023-03-26T10:57:42.830Z,76.03
2023-03-26T10:58:48.703Z,75.62
2023-03-26T10:59:42.840Z,76.84
2023-03-26T11:00:42.809Z,76.54
2023-03-26T11:01:42.812Z,75.93
2023-03-26T11:02:42.833Z,75.96
2023-03-26T11:03:42.743Z,76.06
2023-03-26T11:04:42.775Z,75.86
2023-03-26T11:05:42.751Z,76.27
2023-03-26T11:06:42.722Z,75.14
2023-03-26T11:07:42.704Z,75.45
2023-03-26T11:08:42.683Z,74.73
2023-03-26T11:09:42.690Z,76.06
2023-03-26T11:10:42.666Z,77.84
2023-03-26T11:11:42.648Z,78.35
2023-03-26T11:12:42.630Z,78.49
2023-03-26T11:13:42.617Z,78.39
2023-03-26T11:14:42.645Z,78.19
2023-03-26T11:15:42.620Z,78.39
2023-03-26T11:16:42.582Z,78.80
2023-03-26T11:17:42.595Z,80.44
2023-03-26T11:18:42.564Z,80.03
2023-03-26T11:19:42.545Z,80.44
2023-03-26T11:20:42.568Z,80.64
2023-03-26T11:21:42.518Z,80.03
2023-03-26T11:22:42.495Z,80.85
2023-03-26T11:23:42.483Z,81.77
2023-03-26T11:24:42.478Z,82.90
2023-03-26T11:25:42.490Z,83.61
2023-03-26T11:26:42.450Z,83.76
2023-03-26T11:27:42.439Z,83.51
2023-03-26T11:28:42.415Z,82.93
2023-03-26T11:29:42.401Z,83.04
2023-03-26T11:30:42.462Z,82.53
2023-03-26T11:31:42.433Z,81.71
2023-03-26T11:32:42.389Z,81.20
2023-03-26T11:34:37.047Z,82.12
2023-03-26T11:34:42.364Z,82.73
2023-03-26T11:35:42.405Z,81.60
2023-03-26T11:36:42.308Z,79.75
2023-03-26T11:37:42.296Z,81.09
2023-03-26T11:38:42.277Z,77.29
2023-03-26T11:39:42.298Z,75.86
2023-03-26T11:40:42.256Z,77.16
2023-03-26T11:41:42.240Z,77.77
2023-03-26T11:42:42.231Z,77.06
2023-03-26T11:43:42.226Z,75.21
2023-03-26T11:44:42.214Z,75.21
2023-03-26T11:45:42.241Z,75.01
2023-03-26T11:46:42.236Z,73.98
2023-03-26T11:47:42.185Z,75.11
2023-03-26T11:48:42.172Z,76.14
2023-03-26T11:49:42.127Z,73.44
2023-03-26T11:50:42.105Z,73.23
2023-03-26T11:51:42.161Z,73.95
2023-03-26T11:52:42.087Z,71.49
2023-03-26T11:53:42.077Z,72.00
2023-03-26T11:54:42.060Z,72.31
2023-03-26T11:55:42.043Z,71.39
2023-03-26T11:56:42.128Z,71.39
2023-03-26T11:57:42.074Z,72.52
2023-03-26T11:58:41.999Z,73.33
2023-03-26T11:59:55.604Z,72.92
2023-03-26T12:00:41.985Z,73.10
2023-03-26T12:01:42.017Z,73.91
2023-03-26T12:02:41.982Z,74.63
2023-03-26T12:03:41.938Z,73.91
2023-03-26T12:04:41.969Z,73.27
2023-03-26T12:05:41.895Z,73.06
2023-03-26T12:06:41.885Z,72.96
2023-03-26T12:07:41.903Z,71.49
2023-03-26T12:08:41.855Z,71.08
2023-03-26T12:09:41.861Z,74.66
2023-03-26T12:10:41.839Z,71.77
2023-03-26T12:11:41.819Z,69.52
2023-03-26T12:12:41.885Z,70.30
2023-03-26T12:13:41.938Z,68.63
2023-03-26T12:14:41.792Z,67.41
2023-03-26T12:15:41.763Z,65.67
2023-03-26T12:16:41.775Z,67.10
2023-03-26T12:17:41.784Z,64.65
2023-03-26T12:18:41.740Z,64.86
2023-03-26T12:19:41.731Z,65.16
2023-03-26T12:20:41.694Z,64.31
2023-03-26T12:21:41.687Z,65.13
2023-03-26T12:22:43.485Z,66.66
2023-03-26T12:23:41.651Z,65.64
2023-03-26T12:24:41.648Z,63.06
2023-03-26T12:25:41.631Z,62.35
2023-03-26T12:26:41.814Z,63.16
2023-03-26T12:27:41.608Z,63.47
2023-03-26T12:28:42.997Z,63.47
2023-03-26T12:29:41.582Z,62.76
2023-03-26T12:30:41.558Z,63.37
2023-03-26T12:31:41.590Z,66.42
2023-03-26T12:32:46.157Z,65.61
2023-03-26T12:33:41.557Z,64.08
2023-03-26T12:34:41.525Z,62.76
2023-03-26T12:35:41.529Z,63.47
2023-03-26T12:36:41.500Z,62.04
2023-03-26T12:37:41.471Z,62.85
2023-03-26T12:38:41.493Z,62.96
2023-03-26T12:40:07.350Z,63.98
2023-03-26T12:40:41.419Z,62.35
2023-03-26T12:43:51.346Z,62.55
2023-03-26T12:44:59.577Z,64.18
2023-03-26T12:45:05.551Z,65.99
2023-03-26T12:47:56.875Z,66.53
2023-03-26T12:48:08.173Z,66.74
2023-03-26T12:48:13.741Z,68.37
2023-03-26T12:49:13.749Z,67.04
2023-03-26T12:50:13.565Z,67.85
2023-03-26T12:51:13.552Z,67.76
2023-03-26T12:52:13.539Z,68.26
2023-03-26T12:53:13.517Z,68.77
2023-03-26T12:54:13.547Z,68.77